sensor_id;sensor_type;location;lat;lon;timestamp;P1;durP1;ratioP1;P2;durP2;ratioP2
21987;SDS011;11158;53.404;-1.510;2022-11-20T00:01:05;30.77;;;18.95;;
21987;SDS011;11158;53.404;-1.510;2022-11-20T00:03:39;33.13;;;20.38;;
21987;SDS011;11158;53.404;-1.510;2022-11-20T00:06:07;33.75;;;20.65;;
21987;SDS011;11158;53.404;-1.510;2022-11-20T00:08:35;34.83;;;21.00;;
21987;SDS011;11158;53.404;-1.510;2022-11-20T00:11:03;30.90;;;18.38;;
21987;SDS011;11158;53.404;-1.510;2022-11-20T00:13:32;31.70;;;19.27;;
21987;SDS011;11158;53.404;-1.510;2022-11-20T00:15:59;33.25;;;19.80;;
21987;SDS011;11158;53.404;-1.510;2022-11-20T00:18:26;32.28;;;20.45;;
21987;SDS011;11158;53.404;-1.510;2022-11-20T00:20:52;34.63;;;19.55;;
21987;SDS011;11158;53.404;-1.510;2022-11-20T00:23:21;34.85;;;20.65;;
21987;SDS011;11158;53.404;-1.510;2022-11-20T00:25:47;33.05;;;20.00;;
21987;SDS011;11158;53.404;-1.510;2022-11-20T00:28:13;35.42;;;20.10;;
21987;SDS011;11158;53.404;-1.510;2022-11-20T00:30:38;33.15;;;19.70;;
21987;SDS011;11158;53.404;-1.510;2022-11-20T00:33:04;30.65;;;18.88;;
21987;SDS011;11158;53.404;-1.510;2022-11-20T00:35:30;31.05;;;19.10;;
21987;SDS011;11158;53.404;-1.510;2022-11-20T00:37:55;32.28;;;19.20;;
21987;SDS011;11158;53.404;-1.510;2022-11-20T00:40:21;32.78;;;19.50;;
21987;SDS011;11158;53.404;-1.510;2022-11-20T00:42:47;36.30;;;20.08;;
21987;SDS011;11158;53.404;-1.510;2022-11-20T00:45:14;29.70;;;19.10;;
21987;SDS011;11158;53.404;-1.510;2022-11-20T00:47:39;30.45;;;19.95;;
21987;SDS011;11158;53.404;-1.510;2022-11-20T00:50:05;33.15;;;19.25;;
21987;SDS011;11158;53.404;-1.510;2022-11-20T00:52:31;29.65;;;19.95;;
21987;SDS011;11158;53.404;-1.510;2022-11-20T00:54:57;39.30;;;20.90;;
21987;SDS011;11158;53.404;-1.510;2022-11-20T00:57:22;33.28;;;20.38;;
21987;SDS011;11158;53.404;-1.510;2022-11-20T00:59:48;37.63;;;20.40;;
21987;SDS011;11158;53.404;-1.510;2022-11-20T01:02:14;32.92;;;19.92;;
21987;SDS011;11158;53.404;-1.510;2022-11-20T01:04:41;32.40;;;20.05;;
21987;SDS011;11158;53.404;-1.510;2022-11-20T01:07:08;34.72;;;20.85;;
21987;SDS011;11158;53.404;-1.510;2022-11-20T01:09:33;34.97;;;20.90;;
21987;SDS011;11158;53.404;-1.510;2022-11-20T01:11:59;35.22;;;20.25;;
21987;SDS011;11158;53.404;-1.510;2022-11-20T01:14:25;35.97;;;20.77;;
21987;SDS011;11158;53.404;-1.510;2022-11-20T01:16:51;35.20;;;21.63;;
21987;SDS011;11158;53.404;-1.510;2022-11-20T01:19:21;32.95;;;19.48;;
21987;SDS011;11158;53.404;-1.510;2022-11-20T01:21:50;26.33;;;16.47;;
21987;SDS011;11158;53.404;-1.510;2022-11-20T01:24:18;33.17;;;20.40;;
21987;SDS011;11158;53.404;-1.510;2022-11-20T01:26:46;34.88;;;21.88;;
21987;SDS011;11158;53.404;-1.510;2022-11-20T01:29:15;29.60;;;20.60;;
21987;SDS011;11158;53.404;-1.510;2022-11-20T01:31:42;32.60;;;20.40;;
21987;SDS011;11158;53.404;-1.510;2022-11-20T01:34:09;38.65;;;21.08;;
21987;SDS011;11158;53.404;-1.510;2022-11-20T01:36:38;30.88;;;19.52;;
21987;SDS011;11158;53.404;-1.510;2022-11-20T01:39:05;31.30;;;19.27;;
21987;SDS011;11158;53.404;-1.510;2022-11-20T01:41:33;32.97;;;19.10;;
21987;SDS011;11158;53.404;-1.510;2022-11-20T01:44:19;32.22;;;18.95;;
21987;SDS011;11158;53.404;-1.510;2022-11-20T01:46:55;33.03;;;20.33;;
21987;SDS011;11158;53.404;-1.510;2022-11-20T01:49:33;31.88;;;18.58;;
21987;SDS011;11158;53.404;-1.510;2022-11-20T01:52:04;32.88;;;19.80;;
21987;SDS011;11158;53.404;-1.510;2022-11-20T01:54:36;36.35;;;19.58;;
21987;SDS011;11158;53.404;-1.510;2022-11-20T01:57:08;30.30;;;18.40;;
21987;SDS011;11158;53.404;-1.510;2022-11-20T01:59:39;30.73;;;19.58;;
21987;SDS011;11158;53.404;-1.510;2022-11-20T02:02:16;31.90;;;19.27;;
21987;SDS011;11158;53.404;-1.510;2022-11-20T02:04:52;29.95;;;19.02;;
21987;SDS011;11158;53.404;-1.510;2022-11-20T02:07:22;35.03;;;18.85;;
21987;SDS011;11158;53.404;-1.510;2022-11-20T02:09:48;26.70;;;17.02;;
21987;SDS011;11158;53.404;-1.510;2022-11-20T02:12:29;30.63;;;18.35;;
21987;SDS011;11158;53.404;-1.510;2022-11-20T02:15:13;25.58;;;16.15;;
21987;SDS011;11158;53.404;-1.510;2022-11-20T02:17:40;28.98;;;16.60;;
21987;SDS011;11158;53.404;-1.510;2022-11-20T02:20:06;30.67;;;15.80;;
21987;SDS011;11158;53.404;-1.510;2022-11-20T02:22:35;26.08;;;16.23;;
21987;SDS011;11158;53.404;-1.510;2022-11-20T02:25:09;25.95;;;16.52;;
21987;SDS011;11158;53.404;-1.510;2022-11-20T02:27:36;24.90;;;15.70;;
21987;SDS011;11158;53.404;-1.510;2022-11-20T02:30:03;25.48;;;16.63;;
21987;SDS011;11158;53.404;-1.510;2022-11-20T02:32:33;26.17;;;16.60;;
21987;SDS011;11158;53.404;-1.510;2022-11-20T02:35:39;23.80;;;15.05;;
21987;SDS011;11158;53.404;-1.510;2022-11-20T02:37:57;31.92;;;16.35;;
21987;SDS011;11158;53.404;-1.510;2022-11-20T02:40:24;27.88;;;15.60;;
21987;SDS011;11158;53.404;-1.510;2022-11-20T02:42:54;27.40;;;15.90;;
21987;SDS011;11158;53.404;-1.510;2022-11-20T02:45:20;30.15;;;16.52;;
21987;SDS011;11158;53.404;-1.510;2022-11-20T02:47:55;28.55;;;15.68;;
21987;SDS011;11158;53.404;-1.510;2022-11-20T02:50:21;28.20;;;15.88;;
21987;SDS011;11158;53.404;-1.510;2022-11-20T02:52:47;33.25;;;16.25;;
21987;SDS011;11158;53.404;-1.510;2022-11-20T02:55:12;28.30;;;15.95;;
21987;SDS011;11158;53.404;-1.510;2022-11-20T02:57:38;26.73;;;15.30;;
21987;SDS011;11158;53.404;-1.510;2022-11-20T03:00:04;31.17;;;15.27;;
21987;SDS011;11158;53.404;-1.510;2022-11-20T03:02:31;25.05;;;14.73;;
21987;SDS011;11158;53.404;-1.510;2022-11-20T03:04:58;24.10;;;14.25;;
21987;SDS011;11158;53.404;-1.510;2022-11-20T03:07:23;25.20;;;13.90;;
21987;SDS011;11158;53.404;-1.510;2022-11-20T03:09:49;27.30;;;14.27;;
21987;SDS011;11158;53.404;-1.510;2022-11-20T03:12:15;23.42;;;13.93;;
21987;SDS011;11158;53.404;-1.510;2022-11-20T03:14:41;22.10;;;12.85;;
21987;SDS011;11158;53.404;-1.510;2022-11-20T03:17:08;21.83;;;13.45;;
21987;SDS011;11158;53.404;-1.510;2022-11-20T03:19:36;22.45;;;12.82;;
21987;SDS011;11158;53.404;-1.510;2022-11-20T03:22:02;21.00;;;12.43;;
21987;SDS011;11158;53.404;-1.510;2022-11-20T03:24:28;19.60;;;11.95;;
21987;SDS011;11158;53.404;-1.510;2022-11-20T03:26:54;22.85;;;13.13;;
21987;SDS011;11158;53.404;-1.510;2022-11-20T03:29:20;20.60;;;12.52;;
21987;SDS011;11158;53.404;-1.510;2022-11-20T03:31:46;21.35;;;12.43;;
21987;SDS011;11158;53.404;-1.510;2022-11-20T03:34:12;21.27;;;11.07;;
21987;SDS011;11158;53.404;-1.510;2022-11-20T03:36:38;21.27;;;10.65;;
21987;SDS011;11158;53.404;-1.510;2022-11-20T03:39:05;20.52;;;11.77;;
21987;SDS011;11158;53.404;-1.510;2022-11-20T03:41:34;17.63;;;11.63;;
21987;SDS011;11158;53.404;-1.510;2022-11-20T03:44:03;18.13;;;10.20;;
21987;SDS011;11158;53.404;-1.510;2022-11-20T03:46:30;19.88;;;10.55;;
21987;SDS011;11158;53.404;-1.510;2022-11-20T03:48:57;20.90;;;10.90;;
21987;SDS011;11158;53.404;-1.510;2022-11-20T03:51:28;21.73;;;11.27;;
21987;SDS011;11158;53.404;-1.510;2022-11-20T03:53:56;20.77;;;9.90;;
21987;SDS011;11158;53.404;-1.510;2022-11-20T03:56:27;16.17;;;9.35;;
21987;SDS011;11158;53.404;-1.510;2022-11-20T03:58:56;18.05;;;10.15;;
21987;SDS011;11158;53.404;-1.510;2022-11-20T04:01:30;20.30;;;9.48;;
21987;SDS011;11158;53.404;-1.510;2022-11-20T04:03:57;17.50;;;9.57;;
21987;SDS011;11158;53.404;-1.510;2022-11-20T04:06:25;19.42;;;9.77;;
21987;SDS011;11158;53.404;-1.510;2022-11-20T04:08:56;21.73;;;9.40;;
21987;SDS011;11158;53.404;-1.510;2022-11-20T04:11:24;16.95;;;8.48;;
21987;SDS011;11158;53.404;-1.510;2022-11-20T04:13:51;15.15;;;8.88;;
21987;SDS011;11158;53.404;-1.510;2022-11-20T04:16:19;19.13;;;8.02;;
21987;SDS011;11158;53.404;-1.510;2022-11-20T04:18:46;16.48;;;8.18;;
21987;SDS011;11158;53.404;-1.510;2022-11-20T04:21:11;12.50;;;7.63;;
21987;SDS011;11158;53.404;-1.510;2022-11-20T04:23:38;12.25;;;7.22;;
21987;SDS011;11158;53.404;-1.510;2022-11-20T04:26:05;14.63;;;7.13;;
21987;SDS011;11158;53.404;-1.510;2022-11-20T04:28:33;15.15;;;7.32;;
21987;SDS011;11158;53.404;-1.510;2022-11-20T04:31:02;10.98;;;6.82;;
21987;SDS011;11158;53.404;-1.510;2022-11-20T04:33:28;12.27;;;7.40;;
21987;SDS011;11158;53.404;-1.510;2022-11-20T04:35:54;11.63;;;7.28;;
21987;SDS011;11158;53.404;-1.510;2022-11-20T04:38:20;14.52;;;7.45;;
21987;SDS011;11158;53.404;-1.510;2022-11-20T04:40:46;11.70;;;7.18;;
21987;SDS011;11158;53.404;-1.510;2022-11-20T04:43:11;10.68;;;6.80;;
21987;SDS011;11158;53.404;-1.510;2022-11-20T04:45:37;9.80;;;6.07;;
21987;SDS011;11158;53.404;-1.510;2022-11-20T04:48:02;8.20;;;6.45;;
21987;SDS011;11158;53.404;-1.510;2022-11-20T04:50:28;9.27;;;5.80;;
21987;SDS011;11158;53.404;-1.510;2022-11-20T04:52:54;7.57;;;5.68;;
21987;SDS011;11158;53.404;-1.510;2022-11-20T04:55:20;7.38;;;5.45;;
21987;SDS011;11158;53.404;-1.510;2022-11-20T04:57:45;6.80;;;5.55;;
21987;SDS011;11158;53.404;-1.510;2022-11-20T05:00:15;9.05;;;6.10;;
21987;SDS011;11158;53.404;-1.510;2022-11-20T05:02:41;8.90;;;5.63;;
21987;SDS011;11158;53.404;-1.510;2022-11-20T05:05:07;10.43;;;5.00;;
21987;SDS011;11158;53.404;-1.510;2022-11-20T05:07:33;7.65;;;5.05;;
21987;SDS011;11158;53.404;-1.510;2022-11-20T05:09:58;9.60;;;4.60;;
21987;SDS011;11158;53.404;-1.510;2022-11-20T05:12:24;6.50;;;4.57;;
21987;SDS011;11158;53.404;-1.510;2022-11-20T05:14:49;5.43;;;3.80;;
21987;SDS011;11158;53.404;-1.510;2022-11-20T05:17:15;5.60;;;4.30;;
21987;SDS011;11158;53.404;-1.510;2022-11-20T05:19:41;5.13;;;3.92;;
21987;SDS011;11158;53.404;-1.510;2022-11-20T05:22:07;7.80;;;3.53;;
21987;SDS011;11158;53.404;-1.510;2022-11-20T05:24:32;4.28;;;3.17;;
21987;SDS011;11158;53.404;-1.510;2022-11-20T05:26:58;3.90;;;3.25;;
21987;SDS011;11158;53.404;-1.510;2022-11-20T05:29:23;5.05;;;3.03;;
21987;SDS011;11158;53.404;-1.510;2022-11-20T05:31:49;3.97;;;3.00;;
21987;SDS011;11158;53.404;-1.510;2022-11-20T05:34:14;3.88;;;3.00;;
21987;SDS011;11158;53.404;-1.510;2022-11-20T05:36:40;3.88;;;2.88;;
21987;SDS011;11158;53.404;-1.510;2022-11-20T05:39:06;3.55;;;2.47;;
21987;SDS011;11158;53.404;-1.510;2022-11-20T05:41:32;2.97;;;2.50;;
21987;SDS011;11158;53.404;-1.510;2022-11-20T05:43:58;3.90;;;2.67;;
21987;SDS011;11158;53.404;-1.510;2022-11-20T05:46:24;3.33;;;2.50;;
21987;SDS011;11158;53.404;-1.510;2022-11-20T05:48:49;3.45;;;2.90;;
21987;SDS011;11158;53.404;-1.510;2022-11-20T05:51:16;4.05;;;2.67;;
21987;SDS011;11158;53.404;-1.510;2022-11-20T05:53:43;3.70;;;2.53;;
21987;SDS011;11158;53.404;-1.510;2022-11-20T05:56:10;3.70;;;2.47;;
21987;SDS011;11158;53.404;-1.510;2022-11-20T05:58:40;4.05;;;2.63;;
21987;SDS011;11158;53.404;-1.510;2022-11-20T06:03:34;3.25;;;2.42;;
21987;SDS011;11158;53.404;-1.510;2022-11-20T06:06:00;0.70;;;0.70;;
21987;SDS011;11158;53.404;-1.510;2022-11-20T06:08:26;1.05;;;0.90;;
21987;SDS011;11158;53.404;-1.510;2022-11-20T06:10:54;2.70;;;1.80;;
21987;SDS011;11158;53.404;-1.510;2022-11-20T06:13:20;5.68;;;2.65;;
21987;SDS011;11158;53.404;-1.510;2022-11-20T06:15:49;2.58;;;2.20;;
21987;SDS011;11158;53.404;-1.510;2022-11-20T06:18:15;3.05;;;1.95;;
21987;SDS011;11158;53.404;-1.510;2022-11-20T06:20:42;3.78;;;2.95;;
21987;SDS011;11158;53.404;-1.510;2022-11-20T06:23:07;2.78;;;2.33;;
21987;SDS011;11158;53.404;-1.510;2022-11-20T06:25:36;3.13;;;2.40;;
21987;SDS011;11158;53.404;-1.510;2022-11-20T06:28:06;4.22;;;2.20;;
21987;SDS011;11158;53.404;-1.510;2022-11-20T06:30:33;2.90;;;2.55;;
21987;SDS011;11158;53.404;-1.510;2022-11-20T06:32:59;3.47;;;2.40;;
21987;SDS011;11158;53.404;-1.510;2022-11-20T06:35:25;3.15;;;2.83;;
21987;SDS011;11158;53.404;-1.510;2022-11-20T06:37:50;2.75;;;2.53;;
21987;SDS011;11158;53.404;-1.510;2022-11-20T06:40:16;2.03;;;1.67;;
21987;SDS011;11158;53.404;-1.510;2022-11-20T06:42:42;3.72;;;1.85;;
21987;SDS011;11158;53.404;-1.510;2022-11-20T06:45:08;3.00;;;1.80;;
21987;SDS011;11158;53.404;-1.510;2022-11-20T06:47:34;2.17;;;1.63;;
21987;SDS011;11158;53.404;-1.510;2022-11-20T06:50:00;1.73;;;1.63;;
21987;SDS011;11158;53.404;-1.510;2022-11-20T06:52:25;1.70;;;1.60;;
21987;SDS011;11158;53.404;-1.510;2022-11-20T06:54:51;2.28;;;1.80;;
21987;SDS011;11158;53.404;-1.510;2022-11-20T06:57:17;2.42;;;1.80;;
21987;SDS011;11158;53.404;-1.510;2022-11-20T06:59:43;2.35;;;2.00;;
21987;SDS011;11158;53.404;-1.510;2022-11-20T07:02:09;3.05;;;1.52;;
21987;SDS011;11158;53.404;-1.510;2022-11-20T07:04:38;3.92;;;2.08;;
21987;SDS011;11158;53.404;-1.510;2022-11-20T07:07:05;2.40;;;2.05;;
21987;SDS011;11158;53.404;-1.510;2022-11-20T07:09:32;2.20;;;2.00;;
21987;SDS011;11158;53.404;-1.510;2022-11-20T07:11:58;2.88;;;1.73;;
21987;SDS011;11158;53.404;-1.510;2022-11-20T07:14:24;2.15;;;1.90;;
21987;SDS011;11158;53.404;-1.510;2022-11-20T07:16:51;2.33;;;1.90;;
21987;SDS011;11158;53.404;-1.510;2022-11-20T07:19:16;2.30;;;2.10;;
21987;SDS011;11158;53.404;-1.510;2022-11-20T07:21:43;3.25;;;1.95;;
21987;SDS011;11158;53.404;-1.510;2022-11-20T07:24:09;3.80;;;2.25;;
21987;SDS011;11158;53.404;-1.510;2022-11-20T07:26:34;6.70;;;2.53;;
21987;SDS011;11158;53.404;-1.510;2022-11-20T07:29:00;34.15;;;5.03;;
21987;SDS011;11158;53.404;-1.510;2022-11-20T07:31:26;2.40;;;2.17;;
21987;SDS011;11158;53.404;-1.510;2022-11-20T07:33:52;3.17;;;2.58;;
21987;SDS011;11158;53.404;-1.510;2022-11-20T07:36:17;5.55;;;2.45;;
21987;SDS011;11158;53.404;-1.510;2022-11-20T07:38:43;8.10;;;3.88;;
21987;SDS011;11158;53.404;-1.510;2022-11-20T07:41:09;5.40;;;2.97;;
21987;SDS011;11158;53.404;-1.510;2022-11-20T07:43:35;3.17;;;2.85;;
21987;SDS011;11158;53.404;-1.510;2022-11-20T07:46:00;4.30;;;2.88;;
21987;SDS011;11158;53.404;-1.510;2022-11-20T07:48:26;3.33;;;2.80;;
21987;SDS011;11158;53.404;-1.510;2022-11-20T07:50:55;4.95;;;3.30;;
21987;SDS011;11158;53.404;-1.510;2022-11-20T07:53:22;6.50;;;3.85;;
21987;SDS011;11158;53.404;-1.510;2022-11-20T07:55:48;3.88;;;3.50;;
21987;SDS011;11158;53.404;-1.510;2022-11-20T07:58:17;7.10;;;4.00;;
21987;SDS011;11158;53.404;-1.510;2022-11-20T08:00:44;3.90;;;3.28;;
21987;SDS011;11158;53.404;-1.510;2022-11-20T08:03:10;52.22;;;33.45;;
21987;SDS011;11158;53.404;-1.510;2022-11-20T08:05:36;23.92;;;16.50;;
21987;SDS011;11158;53.404;-1.510;2022-11-20T08:08:02;16.20;;;11.68;;
21987;SDS011;11158;53.404;-1.510;2022-11-20T08:10:28;21.33;;;12.57;;
21987;SDS011;11158;53.404;-1.510;2022-11-20T08:12:54;21.80;;;17.70;;
21987;SDS011;11158;53.404;-1.510;2022-11-20T08:15:38;29.55;;;19.42;;
21987;SDS011;11158;53.404;-1.510;2022-11-20T08:18:05;12.25;;;8.90;;
21987;SDS011;11158;53.404;-1.510;2022-11-20T08:23:04;11.98;;;4.18;;
21987;SDS011;11158;53.404;-1.510;2022-11-20T08:25:31;8.18;;;4.07;;
21987;SDS011;11158;53.404;-1.510;2022-11-20T08:27:59;11.43;;;4.90;;
21987;SDS011;11158;53.404;-1.510;2022-11-20T08:30:26;15.50;;;5.00;;
21987;SDS011;11158;53.404;-1.510;2022-11-20T08:32:52;13.07;;;5.15;;
21987;SDS011;11158;53.404;-1.510;2022-11-20T08:35:18;13.88;;;4.35;;
21987;SDS011;11158;53.404;-1.510;2022-11-20T08:37:47;11.48;;;4.72;;
21987;SDS011;11158;53.404;-1.510;2022-11-20T08:40:13;13.35;;;4.68;;
21987;SDS011;11158;53.404;-1.510;2022-11-20T08:42:50;8.57;;;3.03;;
21987;SDS011;11158;53.404;-1.510;2022-11-20T08:45:16;5.68;;;2.83;;
21987;SDS011;11158;53.404;-1.510;2022-11-20T08:47:43;14.65;;;4.72;;
21987;SDS011;11158;53.404;-1.510;2022-11-20T08:50:10;9.05;;;3.58;;
21987;SDS011;11158;53.404;-1.510;2022-11-20T08:52:37;9.07;;;3.88;;
21987;SDS011;11158;53.404;-1.510;2022-11-20T08:55:04;8.52;;;3.53;;
21987;SDS011;11158;53.404;-1.510;2022-11-20T08:57:31;8.50;;;3.45;;
21987;SDS011;11158;53.404;-1.510;2022-11-20T09:00:00;7.28;;;3.53;;
21987;SDS011;11158;53.404;-1.510;2022-11-20T09:02:27;9.65;;;3.40;;
21987;SDS011;11158;53.404;-1.510;2022-11-20T09:04:53;9.68;;;3.90;;
21987;SDS011;11158;53.404;-1.510;2022-11-20T09:07:19;8.52;;;4.43;;
21987;SDS011;11158;53.404;-1.510;2022-11-20T09:09:45;11.27;;;4.63;;
21987;SDS011;11158;53.404;-1.510;2022-11-20T09:12:11;10.57;;;4.88;;
21987;SDS011;11158;53.404;-1.510;2022-11-20T09:14:37;12.52;;;6.03;;
21987;SDS011;11158;53.404;-1.510;2022-11-20T09:17:03;11.32;;;4.90;;
21987;SDS011;11158;53.404;-1.510;2022-11-20T09:19:29;10.20;;;4.38;;
21987;SDS011;11158;53.404;-1.510;2022-11-20T09:21:54;13.05;;;3.80;;
21987;SDS011;11158;53.404;-1.510;2022-11-20T09:24:20;16.08;;;3.58;;
21987;SDS011;11158;53.404;-1.510;2022-11-20T09:26:46;15.48;;;3.47;;
21987;SDS011;11158;53.404;-1.510;2022-11-20T09:29:12;11.30;;;3.47;;
21987;SDS011;11158;53.404;-1.510;2022-11-20T09:31:38;23.70;;;4.45;;
21987;SDS011;11158;53.404;-1.510;2022-11-20T09:34:04;18.63;;;3.72;;
21987;SDS011;11158;53.404;-1.510;2022-11-20T09:36:30;11.32;;;3.00;;
21987;SDS011;11158;53.404;-1.510;2022-11-20T09:38:55;18.17;;;3.58;;
21987;SDS011;11158;53.404;-1.510;2022-11-20T09:49:35;16.10;;;4.15;;
21987;SDS011;11158;53.404;-1.510;2022-11-20T09:52:32;14.57;;;3.60;;
21987;SDS011;11158;53.404;-1.510;2022-11-20T09:55:19;13.35;;;3.83;;
21987;SDS011;11158;53.404;-1.510;2022-11-20T09:57:46;13.13;;;4.00;;
21987;SDS011;11158;53.404;-1.510;2022-11-20T10:00:16;15.23;;;3.78;;
21987;SDS011;11158;53.404;-1.510;2022-11-20T10:02:47;16.02;;;4.35;;
21987;SDS011;11158;53.404;-1.510;2022-11-20T10:10:42;23.13;;;4.05;;
21987;SDS011;11158;53.404;-1.510;2022-11-20T10:25:24;14.68;;;3.22;;
21987;SDS011;11158;53.404;-1.510;2022-11-20T10:30:19;11.60;;;3.00;;
21987;SDS011;11158;53.404;-1.510;2022-11-20T10:32:48;14.52;;;2.83;;
21987;SDS011;11158;53.404;-1.510;2022-11-20T10:35:22;11.85;;;2.80;;
21987;SDS011;11158;53.404;-1.510;2022-11-20T10:37:51;14.30;;;2.47;;
21987;SDS011;11158;53.404;-1.510;2022-11-20T10:42:57;10.98;;;3.10;;
21987;SDS011;11158;53.404;-1.510;2022-11-20T10:48:12;15.93;;;3.10;;
21987;SDS011;11158;53.404;-1.510;2022-11-20T10:50:49;10.32;;;2.72;;
21987;SDS011;11158;53.404;-1.510;2022-11-20T10:58:52;13.70;;;2.50;;
21987;SDS011;11158;53.404;-1.510;2022-11-20T11:01:41;12.80;;;2.65;;
21987;SDS011;11158;53.404;-1.510;2022-11-20T11:04:53;16.52;;;2.80;;
21987;SDS011;11158;53.404;-1.510;2022-11-20T11:06:54;13.40;;;2.97;;
21987;SDS011;11158;53.404;-1.510;2022-11-20T11:09:32;13.05;;;3.22;;
21987;SDS011;11158;53.404;-1.510;2022-11-20T11:12:01;14.07;;;3.40;;
21987;SDS011;11158;53.404;-1.510;2022-11-20T11:14:27;11.23;;;3.10;;
21987;SDS011;11158;53.404;-1.510;2022-11-20T11:16:54;14.77;;;4.13;;
21987;SDS011;11158;53.404;-1.510;2022-11-20T11:19:22;16.85;;;3.90;;
21987;SDS011;11158;53.404;-1.510;2022-11-20T11:24:23;25.58;;;4.70;;
21987;SDS011;11158;53.404;-1.510;2022-11-20T11:27:00;7.28;;;2.97;;
21987;SDS011;11158;53.404;-1.510;2022-11-20T11:29:37;10.77;;;3.30;;
21987;SDS011;11158;53.404;-1.510;2022-11-20T11:32:07;10.13;;;3.15;;
21987;SDS011;11158;53.404;-1.510;2022-11-20T11:35:05;13.10;;;2.58;;
21987;SDS011;11158;53.404;-1.510;2022-11-20T11:37:43;15.00;;;3.45;;
21987;SDS011;11158;53.404;-1.510;2022-11-20T11:40:12;13.38;;;3.13;;
21987;SDS011;11158;53.404;-1.510;2022-11-20T11:42:43;18.17;;;3.45;;
21987;SDS011;11158;53.404;-1.510;2022-11-20T11:45:14;10.50;;;2.33;;
21987;SDS011;11158;53.404;-1.510;2022-11-20T11:55:31;14.88;;;3.30;;
21987;SDS011;11158;53.404;-1.510;2022-11-20T11:58:09;13.07;;;3.25;;
21987;SDS011;11158;53.404;-1.510;2022-11-20T12:01:01;12.00;;;3.10;;
21987;SDS011;11158;53.404;-1.510;2022-11-20T12:03:37;14.65;;;3.30;;
21987;SDS011;11158;53.404;-1.510;2022-11-20T12:06:22;13.27;;;2.80;;
21987;SDS011;11158;53.404;-1.510;2022-11-20T12:08:52;15.20;;;2.20;;
21987;SDS011;11158;53.404;-1.510;2022-11-20T12:14:20;13.50;;;2.72;;
21987;SDS011;11158;53.404;-1.510;2022-11-20T12:16:52;17.23;;;3.65;;
21987;SDS011;11158;53.404;-1.510;2022-11-20T12:19:21;16.00;;;2.72;;
21987;SDS011;11158;53.404;-1.510;2022-11-20T12:35:00;10.75;;;2.50;;
21987;SDS011;11158;53.404;-1.510;2022-11-20T12:40:17;8.32;;;2.50;;
21987;SDS011;11158;53.404;-1.510;2022-11-20T12:43:03;17.20;;;3.13;;
21987;SDS011;11158;53.404;-1.510;2022-11-20T13:00:27;12.95;;;2.33;;
21987;SDS011;11158;53.404;-1.510;2022-11-20T13:16:31;13.35;;;2.90;;
21987;SDS011;11158;53.404;-1.510;2022-11-20T13:19:04;11.27;;;2.85;;
21987;SDS011;11158;53.404;-1.510;2022-11-20T13:21:41;12.20;;;2.45;;
21987;SDS011;11158;53.404;-1.510;2022-11-20T13:27:33;12.30;;;2.75;;
21987;SDS011;11158;53.404;-1.510;2022-11-20T13:29:43;19.27;;;2.90;;
21987;SDS011;11158;53.404;-1.510;2022-11-20T13:32:13;14.55;;;3.15;;
21987;SDS011;11158;53.404;-1.510;2022-11-20T13:34:56;13.43;;;2.78;;
21987;SDS011;11158;53.404;-1.510;2022-11-20T13:37:24;12.30;;;2.65;;
21987;SDS011;11158;53.404;-1.510;2022-11-20T13:45:26;9.38;;;2.35;;
21987;SDS011;11158;53.404;-1.510;2022-11-20T13:47:54;10.77;;;2.72;;
21987;SDS011;11158;53.404;-1.510;2022-11-20T13:50:24;13.10;;;2.40;;
21987;SDS011;11158;53.404;-1.510;2022-11-20T13:55:51;12.00;;;3.05;;
21987;SDS011;11158;53.404;-1.510;2022-11-20T13:58:28;14.00;;;3.53;;
21987;SDS011;11158;53.404;-1.510;2022-11-20T14:01:00;13.05;;;2.97;;
21987;SDS011;11158;53.404;-1.510;2022-11-20T14:03:33;15.25;;;3.58;;
21987;SDS011;11158;53.404;-1.510;2022-11-20T14:06:04;9.25;;;2.90;;
21987;SDS011;11158;53.404;-1.510;2022-11-20T14:08:43;17.48;;;2.83;;
21987;SDS011;11158;53.404;-1.510;2022-11-20T14:11:16;20.40;;;3.75;;
21987;SDS011;11158;53.404;-1.510;2022-11-20T14:16:27;17.77;;;3.25;;
21987;SDS011;11158;53.404;-1.510;2022-11-20T14:18:55;17.60;;;3.22;;
21987;SDS011;11158;53.404;-1.510;2022-11-20T14:21:28;12.63;;;3.20;;
21987;SDS011;11158;53.404;-1.510;2022-11-20T14:24:09;16.15;;;2.72;;
21987;SDS011;11158;53.404;-1.510;2022-11-20T14:26:37;15.82;;;3.67;;
21987;SDS011;11158;53.404;-1.510;2022-11-20T14:29:28;15.45;;;4.20;;
21987;SDS011;11158;53.404;-1.510;2022-11-20T14:32:01;13.38;;;3.72;;
21987;SDS011;11158;53.404;-1.510;2022-11-20T14:34:29;12.82;;;3.35;;
21987;SDS011;11158;53.404;-1.510;2022-11-20T14:37:01;18.35;;;3.95;;
21987;SDS011;11158;53.404;-1.510;2022-11-20T14:42:01;8.30;;;1.92;;
21987;SDS011;11158;53.404;-1.510;2022-11-20T14:44:35;11.23;;;2.70;;
21987;SDS011;11158;53.404;-1.510;2022-11-20T14:47:02;12.07;;;3.05;;
21987;SDS011;11158;53.404;-1.510;2022-11-20T14:49:29;14.93;;;3.38;;
21987;SDS011;11158;53.404;-1.510;2022-11-20T14:52:00;20.40;;;5.15;;
21987;SDS011;11158;53.404;-1.510;2022-11-20T14:54:28;12.52;;;4.45;;
21987;SDS011;11158;53.404;-1.510;2022-11-20T14:57:00;15.10;;;4.03;;
21987;SDS011;11158;53.404;-1.510;2022-11-20T15:02:10;13.15;;;3.33;;
21987;SDS011;11158;53.404;-1.510;2022-11-20T15:04:47;12.98;;;2.60;;
21987;SDS011;11158;53.404;-1.510;2022-11-20T15:07:25;16.40;;;2.80;;
21987;SDS011;11158;53.404;-1.510;2022-11-20T15:10:04;15.52;;;3.05;;
21987;SDS011;11158;53.404;-1.510;2022-11-20T15:12:32;16.83;;;3.63;;
21987;SDS011;11158;53.404;-1.510;2022-11-20T15:15:01;15.93;;;4.63;;
21987;SDS011;11158;53.404;-1.510;2022-11-20T15:17:29;17.38;;;4.68;;
21987;SDS011;11158;53.404;-1.510;2022-11-20T15:19:56;12.77;;;4.22;;
21987;SDS011;11158;53.404;-1.510;2022-11-20T15:22:23;25.08;;;4.65;;
21987;SDS011;11158;53.404;-1.510;2022-11-20T15:24:49;12.95;;;3.55;;
21987;SDS011;11158;53.404;-1.510;2022-11-20T15:27:14;14.50;;;3.75;;
21987;SDS011;11158;53.404;-1.510;2022-11-20T15:29:41;12.13;;;3.38;;
21987;SDS011;11158;53.404;-1.510;2022-11-20T15:32:08;8.95;;;3.53;;
21987;SDS011;11158;53.404;-1.510;2022-11-20T15:34:34;9.70;;;2.88;;
21987;SDS011;11158;53.404;-1.510;2022-11-20T15:37:00;13.50;;;3.60;;
21987;SDS011;11158;53.404;-1.510;2022-11-20T15:39:26;9.55;;;2.65;;
21987;SDS011;11158;53.404;-1.510;2022-11-20T15:41:51;10.88;;;2.65;;
21987;SDS011;11158;53.404;-1.510;2022-11-20T15:44:17;12.38;;;2.80;;
21987;SDS011;11158;53.404;-1.510;2022-11-20T15:46:44;8.57;;;2.20;;
21987;SDS011;11158;53.404;-1.510;2022-11-20T15:49:15;9.80;;;2.40;;
21987;SDS011;11158;53.404;-1.510;2022-11-20T15:51:44;5.70;;;2.40;;
21987;SDS011;11158;53.404;-1.510;2022-11-20T15:54:14;9.50;;;2.55;;
21987;SDS011;11158;53.404;-1.510;2022-11-20T15:56:42;6.20;;;2.45;;
21987;SDS011;11158;53.404;-1.510;2022-11-20T15:59:09;7.43;;;2.30;;
21987;SDS011;11158;53.404;-1.510;2022-11-20T16:01:34;6.43;;;1.67;;
21987;SDS011;11158;53.404;-1.510;2022-11-20T16:04:01;6.63;;;1.85;;
21987;SDS011;11158;53.404;-1.510;2022-11-20T16:06:26;6.15;;;1.98;;
21987;SDS011;11158;53.404;-1.510;2022-11-20T16:08:52;3.20;;;1.30;;
21987;SDS011;11158;53.404;-1.510;2022-11-20T16:11:18;1.38;;;0.60;;
21987;SDS011;11158;53.404;-1.510;2022-11-20T16:13:44;1.90;;;0.80;;
21987;SDS011;11158;53.404;-1.510;2022-11-20T16:16:33;0.65;;;0.65;;
21987;SDS011;11158;53.404;-1.510;2022-11-20T16:19:00;0.75;;;0.50;;
21987;SDS011;11158;53.404;-1.510;2022-11-20T16:21:26;0.38;;;0.38;;
21987;SDS011;11158;53.404;-1.510;2022-11-20T16:23:59;0.90;;;0.80;;
21987;SDS011;11158;53.404;-1.510;2022-11-20T16:26:27;0.52;;;0.52;;
21987;SDS011;11158;53.404;-1.510;2022-11-20T16:28:53;1.33;;;0.77;;
21987;SDS011;11158;53.404;-1.510;2022-11-20T16:31:20;0.93;;;0.63;;